Snoqualmie River Flood Gauge Status

Sum of the 3 forks - Station Details,
Latest reading:
Sat05/25 01:15 pm 1824 cfs (-96/hr)
Past 24hr max:
Sat05/25 04:00 am 1970 cfs
Forecasted crests: (published Sat 05/25/19 11:27 am)
Sat05/25 11:00 pm 2022 cfs
Mon05/27 05:00 am 1808 cfs
Tue05/28 05:00 am 1891 cfs
Wed05/29 05:00 am 1795 cfs
Thu05/30 05:00 am 1723 cfs
Fri05/31 05:00 am 1699 cfs
Sat06/01 05:00 am 1660 cfs
Sun06/02 05:00 am 1566 cfs
Mon06/03 05:00 am 2096 cfs
Snoqualmie Falls station - Station Details,
flood stage: 12.88 ft
Latest reading:
Sat05/25 01:10 pm 5.63 ft 2450 cfs (steady)
Past 24hr max:
Fri05/24 01:10 pm 5.68 ft 2504 cfs
Forecasted crests: (published Sat 05/25/19 11:27 am)
Sun05/26 05:00 am 5.7 ft 2523 cfs
Mon05/27 05:00 am 5.45 ft 2266 cfs
Tue05/28 05:00 am 5.5 ft 2311 cfs
Wed05/29 05:00 am 5.4 ft 2216 cfs
Thu05/30 05:00 am 5.31 ft 2122 cfs
Fri05/31 05:00 am 5.27 ft 2082 cfs
Sat06/01 05:00 am 5.21 ft 2024 cfs
Sun06/02 05:00 am 5.11 ft 1935 cfs
Mon06/03 11:00 am 5.59 ft 2408 cfs
Carnation station - Station Details,
flood stage: 54.0 ft
Latest reading:
Sat05/25 01:15 pm 46.58 ft 2756 cfs (steady)
Past 24hr max:
Fri05/24 01:15 pm 46.59 ft 2779 cfs
Forecasted crests: (published Sat 05/25/19 11:27 am)
Sun05/26 05:00 am 46.62 ft 2858 cfs
Mon05/27 05:00 am 46.49 ft 2560 cfs
Tue05/28 05:00 am 46.51 ft 2596 cfs
Wed05/29 05:00 am 46.47 ft 2510 cfs
Thu05/30 05:00 am 46.43 ft 2429 cfs
Fri05/31 05:00 am 46.42 ft 2406 cfs
Sat06/01 05:00 am 46.4 ft 2363 cfs
Sun06/02 05:00 am 46.37 ft 2291 cfs
Mon06/03 11:00 am 46.6 ft 2814 cfs

Snoqualmie River flood gauge data supplied by the
National Weather Service Northwest River Forecast Center.

Sign up for Floodzilla alerts.